METAR Data
IDs: Format: Raw Decoded Include TAF

Data at: 0207 UTC 16 Jan 2019

KHBV 160150Z AUTO 00000KT 5SM BR BKN005 OVC011 09/08 A3027 RMK AO2 T00860082
KHBV 160130Z AUTO 00000KT 4SM -RA OVC005 09/08 A3028 RMK AO2 T00870082
KHBV 160110Z AUTO 00000KT 4SM -RA OVC005 09/08 A3026 RMK AO2 T00860081
KHBV 160050Z AUTO 00000KT 4SM -RA BKN007 OVC011 09/08 A3026 RMK AO2 T00860081
KHBV 160030Z AUTO 00000KT 10SM -RA BKN007 OVC013 09/08 A3026 RMK AO2 T00850080
KHBV 160010Z AUTO 00000KT 10SM -DZ OVC007 09/08 A3026 RMK AO2 T00860080
KHBV 152350Z AUTO 00000KT 10SM -RA BKN005 OVC009 09/08 A3026 RMK AO2 P0002 60011 T00870081 10403 21019
KHBV 152330Z AUTO 00000KT 10SM -RA OVC007 09/08 A3026 RMK AO2 P0002 T00870082
KHBV 152310Z AUTO 00000KT 5SM RA OVC005 09/08 A3026 RMK AO2 P0001 T00870081
KHBV 152250Z AUTO 00000KT 5SM -RA BKN005 OVC011 09/08 A3026 RMK AO2 P0004 T00860081
KHBV 152230Z AUTO 00000KT 4SM RA BKN005 OVC011 09/08 A3026 RMK AO2 P0002 T00860081
KHBV 152210Z AUTO 00000KT 2 1/2SM -RA OVC005 09/08 A3026 RMK AO2 P0001 T00890084
KHBV 152150Z AUTO 00000KT 2SM RA OVC003 09/09 A3027 RMK AO2 P0001 T00910086
KHBV 152130Z AUTO 00000KT 2SM -RA OVC005 09/09 A3027 RMK AO2 T00910085
KHBV 152110Z AUTO 00000KT 2SM -RA OVC005 09/08 A3026 RMK AO2 T00900084
KHBV 152050Z AUTO 00000KT 2 1/2SM -RA OVC005 09/08 A3026 RMK AO2 P0001 60003 T00880082
KHBV 152030Z AUTO 00000KT 3SM -RA OVC006 09/08 A3026 RMK AO2 P0001 T00870081
KHBV 152010Z AUTO 00000KT 4SM -RA BKN006 OVC010 09/08 A3027 RMK AO2 T00850080
KHBV 151950Z AUTO 00000KT 4SM -RA OVC006 08/08 A3027 RMK AO2 P0002 T00840078
KHBV 151930Z AUTO 00000KT 3SM -RA BKN006 OVC012 08/08 A3028 RMK AO2 P0001 T00820076
KHBV 151910Z AUTO 00000KT 3SM -RA BKN006 OVC012 08/07 A3029 RMK AO2 T00810073
KHBV 151850Z AUTO 00000KT 4SM BR OVC004 08/07 A3031 RMK AO2 T00790072
KHBV 151830Z AUTO 00000KT 5SM BR BKN004 OVC021 08/07 A3032 RMK AO2 T00770071
KHBV 151810Z AUTO 00000KT 7SM OVC004 08/07 A3033 RMK AO2 T00760070
KHBV 151750Z AUTO 00000KT 7SM BKN004 OVC047 08/07 A3034 RMK AO2 60001 T00760070 10403 21019
KHBV 151730Z AUTO 00000KT 3SM BR OVC004 08/07 A3036 RMK AO2 T00750068
KHBV 151710Z AUTO 01007KT 2SM BR OVC004 07/07 A3037 RMK AO2 T00730067
KHBV 151650Z AUTO 36005KT 1 3/4SM RA OVC004 07/07 A3038 RMK AO2 P0001 T00720066
KHBV 151630Z AUTO 35007KT 1 3/4SM -RA OVC004 07/07 A3039 RMK AO2 P0001 T00730066
KHBV 151610Z AUTO 00000KT 1 1/2SM -RA OVC006 07/07 A3039 RMK AO2 P0001 T00740068
KHBV 151550Z AUTO 35009KT 1 1/2SM -RA OVC006 08/07 A3039 RMK AO2 T00750068
KHBV 151530Z AUTO 00000KT 1 1/4SM -RA OVC006 08/07 A3037 RMK AO2 T00750068
KHBV 151510Z AUTO 00000KT 1 3/4SM BR SCT004 OVC015 07/07 A3036 RMK AO2 T00740067
KHBV 151450Z AUTO 00000KT 2SM BR SCT004 OVC015 07/07 A3035 RMK AO2 T00730066
KHBV 151430Z AUTO 00000KT 1 3/4SM -RA SCT004 OVC017 07/06 A3034 RMK AO2 T00710064
KHBV 151410Z AUTO 00000KT 2 1/2SM RA OVC017 07/06 A3033 RMK AO2 T00700061
KHBV 151350Z AUTO 00000KT 3SM BR SCT020 OVC026 07/06 A3033 RMK AO2 T00700062
KHBV 151330Z AUTO 00000KT 4SM BR OVC024 07/06 A3031 RMK AO2 T00680061
KHBV 151310Z AUTO 00000KT 4SM BR OVC026 07/06 A3031 RMK AO2 T00660060
KHBV 151250Z AUTO 00000KT 4SM -SN OVC026 07/06 A3031 RMK AO2 T00660060
KHBV 151230Z AUTO 00000KT 4SM BR OVC024 07/06 A3031 RMK AO2 T00650059
KHBV 151210Z AUTO 00000KT 4SM -RA SCT004 BKN009 OVC024 07/06 A3031 RMK AO2 T00650057
KHBV 151150Z AUTO 00000KT 4SM BR SCT004 SCT009 OVC026 07/06 A3031 RMK AO2 T00650057 10403 21019
KHBV 151130Z AUTO 00000KT 4SM BR OVC024 07/06 A3031 RMK AO2 T00660056
KHBV 151110Z AUTO 00000KT 5SM BR SCT017 OVC026 07/05 A3030 RMK AO2 T00670053
KHBV 151050Z AUTO 00000KT 5SM BR SCT012 BKN017 OVC024 07/05 A3031 RMK AO2 T00690050
KHBV 151030Z AUTO 00000KT 7SM OVC012 07/05 A3031 RMK AO2 T00710047
KHBV 151010Z AUTO 00000KT 7SM OVC014 07/05 A3031 RMK AO2 T00740048
KHBV 150950Z AUTO 00000KT 7SM OVC014 08/05 A3031 RMK AO2 T00760045
KHBV 150930Z AUTO 00000KT 7SM BKN016 OVC027 08/04 A3032 RMK AO2 T00780041
KHBV 150910Z AUTO 00000KT 10SM BKN021 OVC028 08/04 A3033 RMK AO2 T00790040
KHBV 150850Z AUTO 00000KT 10SM SCT016 OVC023 08/04 A3033 RMK AO2 T00800037
KHBV 150830Z AUTO 00000KT 7SM BKN016 OVC021 08/04 A3033 RMK AO2 T00810035
KHBV 150810Z AUTO 00000KT 10SM OVC018 08/03 A3033 RMK AO2 T00820034
KHBV 150750Z AUTO 00000KT 10SM OVC018 08/04 A3034 RMK AO2 T00820035
KHBV 150730Z AUTO 00000KT 10SM OVC018 08/03 A3033 RMK AO2 T00810033
KHBV 150710Z AUTO 00000KT 10SM OVC018 08/03 A3033 RMK AO2 T00810033
KHBV 150650Z AUTO 00000KT 10SM OVC018 08/03 A3034 RMK AO2 T00810033
KHBV 150630Z AUTO 00000KT 10SM OVC018 08/03 A3035 RMK AO2 T00810033
KHBV 150610Z AUTO 00000KT 10SM OVC016 08/04 A3036 RMK AO2 T00810035
KHBV 150550Z AUTO 00000KT 10SM OVC016 08/03 A3037 RMK AO2 T00810034 10403 21019 404031019
KHBV 150530Z AUTO 00000KT 10SM OVC016 08/03 A3038 RMK AO2 T00810034
KHBV 150510Z AUTO 00000KT 10SM OVC016 08/03 A3038 RMK AO2 T00810034
KHBV 150450Z AUTO 00000KT 10SM OVC016 08/04 A3039 RMK AO2 T00800035
KHBV 150430Z AUTO 00000KT 10SM OVC016 08/04 A3038 RMK AO2 T00800039
KHBV 150410Z AUTO 00000KT 10SM BKN014 OVC019 08/04 A3038 RMK AO2 T00810040
KHBV 150350Z AUTO 00000KT 10SM SCT014 OVC019 08/04 A3038 RMK AO2 T00800040
KHBV 150330Z AUTO 00000KT 10SM BKN014 OVC019 08/04 A3037 RMK AO2 T00800041
KHBV 150310Z AUTO 00000KT 10SM BKN014 OVC019 08/04 A3037 RMK AO2 T00800041
KHBV 150250Z AUTO 00000KT 10SM OVC017 08/04 A3037 RMK AO2 T00830040
KHBV 150230Z AUTO 00000KT 10SM BKN019 OVC024 09/04 A3037 RMK AO2 T00850039
KHBV 150210Z AUTO 00000KT 10SM BKN019 OVC024 09/04 A3037 RMK AO2 T00860039
KHBV 150150Z AUTO 00000KT 10SM OVC019 09/04 A3038 RMK AO2 T00880037
KHBV 150130Z AUTO 00000KT 10SM BKN017 OVC023 09/04 A3038 RMK AO2 T00900036
KHBV 150110Z AUTO 00000KT 10SM OVC017 09/04 A3037 RMK AO2 T00910037
KHBV 150050Z AUTO 00000KT 10SM OVC019 09/04 A3036 RMK AO2 T00920038
KHBV 150030Z AUTO 00000KT 10SM OVC019 09/04 A3036 RMK AO2 T00930038
KHBV 150010Z AUTO 00000KT 10SM OVC019 09/04 A3036 RMK AO2 T00940038
KHBV 142350Z AUTO 00000KT 10SM OVC019 10/04 A3035 RMK AO2 T00970038 10403 21019
KHBV 142330Z AUTO 00000KT 10SM OVC019 10/04 A3036 RMK AO2 T00990037
KHBV 142310Z AUTO 00000KT 7SM OVC019 10/04 A3035 RMK AO2 T01010039
KHBV 142250Z AUTO 00000KT 7SM OVC019 10/04 A3035 RMK AO2 T01040040
KHBV 142230Z AUTO 00000KT 7SM OVC019 11/04 A3035 RMK AO2 T01050041
KHBV 142210Z AUTO 00000KT 10SM OVC019 11/04 A3035 RMK AO2 T01050041
KHBV 142150Z AUTO 00000KT 10SM OVC019 11/04 A3035 RMK AO2 T01050040
KHBV 142130Z AUTO 00000KT 10SM OVC019 11/04 A3035 RMK AO2 T01050040
KHBV 142110Z AUTO 00000KT 10SM OVC019 11/04 A3035 RMK AO2 T01050040
KHBV 142050Z AUTO 00000KT 10SM OVC017 11/04 A3035 RMK AO2 T01070039
KHBV 142030Z AUTO 00000KT 10SM OVC017 11/04 A3036 RMK AO2 T01060038
KHBV 142010Z AUTO 00000KT 10SM OVC017 11/04 A3036 RMK AO2 T01050038
KHBV 141950Z AUTO 00000KT 10SM BKN015 BKN039 OVC045 11/04 A3037 RMK AO2 T01050038
KHBV 141930Z AUTO 00000KT 10SM SCT015 SCT039 OVC045 10/04 A3037 RMK AO2 T01030036
KHBV 141910Z AUTO 00000KT 10SM SCT019 SCT024 OVC047 10/04 A3038 RMK AO2 T01000035
KHBV 141850Z AUTO 00000KT 10SM BKN017 BKN024 OVC049 10/04 A3040 RMK AO2 T00980035
KHBV 141830Z AUTO 00000KT 10SM BKN017 OVC022 10/03 A3041 RMK AO2 T00960033
KHBV 141810Z AUTO 00000KT 7SM OVC017 09/03 A3042 RMK AO2 T00940033
KHBV 141750Z AUTO 00000KT 10SM OVC019 09/03 A3043 RMK AO2 T00910031 10403 21019
KHBV 141730Z AUTO 00000KT 7SM SCT021 OVC040 09/03 A3044 RMK AO2 T00900030
KHBV 141710Z AUTO 00000KT 7SM SCT018 SCT027 OVC038 09/03 A3045 RMK AO2 T00860029
KHBV 141650Z AUTO 00000KT 10SM SCT018 BKN027 OVC036 09/03 A3045 RMK AO2 T00850029
KHBV 141630Z AUTO 00000KT 10SM SCT029 OVC036 08/03 A3046 RMK AO2 T00840029
KHBV 141610Z AUTO 00000KT 10SM OVC034 08/03 A3046 RMK AO2 T00810026
KHBV 141550Z AUTO 00000KT 10SM OVC034 08/03 A3046 RMK AO2 T00810027
KHBV 141530Z AUTO 00000KT 7SM BKN034 OVC043 08/03 A3045 RMK AO2 T00800028
KHBV 141510Z AUTO 00000KT 10SM SCT038 BKN043 OVC050 08/03 A3044 RMK AO2 T00800028
KHBV 141450Z AUTO 00000KT 7SM SCT041 OVC049 08/03 A3044 RMK AO2 T00790027
KHBV 141430Z AUTO 00000KT 10SM BKN043 OVC055 08/03 A3043 RMK AO2 T00770028
KHBV 141410Z AUTO 00000KT 10SM OVC045 08/03 A3042 RMK AO2 T00770030